createdAt,value
2024-04-14T00:02:17.766Z,5.20
2024-04-14T00:04:53.571Z,8.20
2024-04-14T00:07:22.812Z,9.50
2024-04-14T00:09:51.378Z,8.10
2024-04-14T00:12:19.853Z,7.00
2024-04-14T00:14:48.520Z,8.50
2024-04-14T00:17:17.029Z,8.00
2024-04-14T00:19:45.494Z,11.10
2024-04-14T00:22:14.794Z,8.60
2024-04-14T00:24:43.211Z,10.40
2024-04-14T00:27:11.714Z,10.60
2024-04-14T00:29:40.394Z,12.00
2024-04-14T00:32:08.869Z,7.50
2024-04-14T00:34:37.379Z,7.80
2024-04-14T00:37:06.950Z,8.10
2024-04-14T00:39:35.451Z,7.90
2024-04-14T00:42:04.101Z,8.30
2024-04-14T00:44:32.628Z,7.30
2024-04-14T00:47:02.710Z,7.10
2024-04-14T00:49:31.949Z,7.70
2024-04-14T00:52:03.964Z,7.60
2024-04-14T00:54:33.637Z,7.70
2024-04-14T00:57:06.768Z,8.90
2024-04-14T00:59:35.597Z,9.20
2024-04-14T01:02:07.333Z,8.30
2024-04-14T01:04:36.488Z,7.40
2024-04-14T01:07:05.604Z,8.80
2024-04-14T01:09:34.423Z,9.90
2024-04-14T01:12:03.260Z,7.40
2024-04-14T01:14:31.998Z,7.50
2024-04-14T01:17:00.910Z,9.90
2024-04-14T01:19:29.707Z,8.10
2024-04-14T01:21:58.412Z,11.00
2024-04-14T01:24:27.102Z,12.40
2024-04-14T01:26:55.550Z,11.70
2024-04-14T01:29:23.983Z,10.50
2024-04-14T01:31:52.395Z,10.30
2024-04-14T01:34:21.864Z,10.80
2024-04-14T01:36:50.723Z,11.70
2024-04-14T01:39:20.099Z,10.10
2024-04-14T01:41:48.564Z,11.30
2024-04-14T01:44:16.918Z,11.40
2024-04-14T01:46:45.398Z,11.80
2024-04-14T01:49:14.626Z,11.90
2024-04-14T01:51:43.289Z,11.70
2024-04-14T01:54:12.857Z,9.80
2024-04-14T01:56:41.352Z,12.10
2024-04-14T01:59:10.018Z,13.80
2024-04-14T02:01:38.624Z,11.70
2024-04-14T02:04:07.471Z,16.20
2024-04-14T02:06:36.015Z,10.30
2024-04-14T02:09:04.607Z,12.10
2024-04-14T02:11:33.128Z,14.80
2024-04-14T02:14:02.574Z,11.30
2024-04-14T02:16:30.997Z,14.80
2024-04-14T02:18:59.386Z,12.30
2024-04-14T02:21:28.052Z,13.00
2024-04-14T02:23:56.976Z,12.70
2024-04-14T02:26:25.369Z,11.00
2024-04-14T02:28:53.746Z,11.80
2024-04-14T02:31:22.458Z,14.00
2024-04-14T02:33:50.963Z,14.80
2024-04-14T02:36:20.796Z,14.50
2024-04-14T02:38:49.901Z,14.30
2024-04-14T02:41:18.135Z,12.80
2024-04-14T02:43:46.499Z,11.90
2024-04-14T02:46:15.068Z,11.60
2024-04-14T02:48:50.702Z,13.20
2024-04-14T02:51:20.731Z,12.90
2024-04-14T02:53:49.211Z,13.70
2024-04-14T02:56:18.035Z,12.30
2024-04-14T02:58:46.783Z,14.70
2024-04-14T03:01:17.605Z,12.10
2024-04-14T03:03:46.752Z,12.70
2024-04-14T03:06:17.538Z,20.80
2024-04-14T03:08:46.174Z,13.10
2024-04-14T03:11:14.609Z,12.00
2024-04-14T03:13:42.872Z,14.50
2024-04-14T03:16:11.141Z,12.80
2024-04-14T03:18:40.626Z,12.00
2024-04-14T03:21:08.942Z,11.20
2024-04-14T03:23:39.182Z,14.60
2024-04-14T03:26:07.604Z,14.60
2024-04-14T03:28:36.041Z,12.30
2024-04-14T03:31:05.027Z,14.70
2024-04-14T03:33:34.098Z,13.40
2024-04-14T03:36:07.654Z,14.10
2024-04-14T03:38:36.189Z,14.60
2024-04-14T03:41:04.896Z,12.60
2024-04-14T03:43:33.529Z,16.00
2024-04-14T03:46:02.030Z,11.70
2024-04-14T03:48:30.518Z,17.20
2024-04-14T03:50:59.540Z,13.40
2024-04-14T03:53:27.855Z,12.60
2024-04-14T03:55:56.319Z,13.60
2024-04-14T03:58:24.646Z,14.70
2024-04-14T04:00:53.279Z,14.10
2024-04-14T04:03:21.772Z,15.50
2024-04-14T04:05:56.405Z,35.30
2024-04-14T04:08:25.296Z,14.90
2024-04-14T04:11:04.738Z,17.80
2024-04-14T04:13:33.858Z,23.70
2024-04-14T04:16:05.470Z,18.50
2024-04-14T04:18:35.232Z,17.20
2024-04-14T04:21:08.508Z,20.40
2024-04-14T04:23:36.795Z,18.50
2024-04-14T04:26:05.279Z,16.60
2024-04-14T04:28:34.459Z,15.20
2024-04-14T04:31:13.252Z,14.10
2024-04-14T04:33:43.051Z,14.00
2024-04-14T04:36:13.930Z,15.90
2024-04-14T04:38:45.173Z,15.90
2024-04-14T04:41:13.802Z,12.20
2024-04-14T04:43:44.435Z,15.00
2024-04-14T04:46:13.078Z,18.20
2024-04-14T04:48:42.147Z,12.80
2024-04-14T04:51:10.645Z,16.30
2024-04-14T04:53:39.889Z,15.50
2024-04-14T04:56:08.330Z,20.50
2024-04-14T04:58:41.998Z,15.10
2024-04-14T05:01:19.163Z,14.80
2024-04-14T05:03:48.190Z,13.10
2024-04-14T05:06:17.423Z,34.50
2024-04-14T05:08:45.756Z,16.40
2024-04-14T05:11:14.341Z,14.90
2024-04-14T05:13:43.016Z,16.70
2024-04-14T05:16:13.020Z,15.20
2024-04-14T05:18:41.897Z,13.30
2024-04-14T05:21:10.810Z,11.70
2024-04-14T05:23:39.561Z,12.50
2024-04-14T05:26:07.978Z,20.60
2024-04-14T05:28:36.515Z,15.30
2024-04-14T05:31:05.324Z,11.30
2024-04-14T05:33:33.854Z,15.50
2024-04-14T05:36:02.179Z,13.30
2024-04-14T05:38:32.818Z,17.00
2024-04-14T05:41:03.264Z,14.20
2024-04-14T05:43:31.871Z,17.70
2024-04-14T05:46:00.396Z,12.70
2024-04-14T05:48:29.227Z,14.70
2024-04-14T05:50:59.338Z,16.00
2024-04-14T05:53:29.362Z,13.90
2024-04-14T05:55:58.429Z,11.70
2024-04-14T05:58:26.981Z,14.50
2024-04-14T06:00:57.386Z,11.50
2024-04-14T06:03:27.281Z,12.10
2024-04-14T06:05:55.883Z,19.40
2024-04-14T06:08:24.443Z,10.30
2024-04-14T06:10:53.154Z,12.90
2024-04-14T06:13:23.478Z,12.70
2024-04-14T06:15:52.165Z,10.40
2024-04-14T06:18:20.678Z,11.40
2024-04-14T06:20:49.188Z,12.20
2024-04-14T06:23:21.123Z,13.60
2024-04-14T06:25:50.153Z,11.60
2024-04-14T06:28:18.477Z,15.60
2024-04-14T06:30:47.116Z,21.10
2024-04-14T06:33:15.978Z,18.70
2024-04-14T06:35:44.412Z,13.40
2024-04-14T06:38:12.722Z,12.30
2024-04-14T06:40:41.420Z,10.90
2024-04-14T06:43:09.954Z,14.20
2024-04-14T06:45:39.266Z,15.30
2024-04-14T06:48:08.347Z,11.60
2024-04-14T06:50:36.847Z,14.30
2024-04-14T06:53:05.324Z,10.30
2024-04-14T06:55:35.988Z,10.70
2024-04-14T06:58:05.088Z,11.80
2024-04-14T07:00:34.741Z,12.80
2024-04-14T07:03:03.355Z,11.80
2024-04-14T07:05:31.762Z,13.30
2024-04-14T07:08:00.333Z,9.10
2024-04-14T07:10:28.772Z,15.00
2024-04-14T07:12:57.274Z,10.50
2024-04-14T07:15:26.165Z,11.20
2024-04-14T07:17:54.700Z,16.40
2024-04-14T07:20:23.459Z,15.50
2024-04-14T07:22:51.938Z,15.00
2024-04-14T07:25:20.639Z,10.50
2024-04-14T07:27:49.261Z,21.50
2024-04-14T07:30:17.997Z,13.20
2024-04-14T07:32:46.854Z,12.90
2024-04-14T07:35:16.185Z,10.60
2024-04-14T07:37:44.587Z,9.00
2024-04-14T07:40:15.803Z,11.80
2024-04-14T07:42:44.492Z,11.60
2024-04-14T07:45:12.840Z,13.10
2024-04-14T07:47:44.231Z,8.90
2024-04-14T07:50:14.267Z,10.80
2024-04-14T07:52:42.699Z,8.70
2024-04-14T07:55:11.494Z,12.10
2024-04-14T07:57:41.476Z,10.60
2024-04-14T08:00:13.167Z,12.60
2024-04-14T08:02:43.305Z,12.00
2024-04-14T08:05:12.049Z,11.40
2024-04-14T08:07:41.034Z,11.50
2024-04-14T08:10:09.669Z,8.90
2024-04-14T08:12:38.503Z,15.80
2024-04-14T08:15:07.396Z,15.80
2024-04-14T08:17:35.977Z,14.30
2024-04-14T08:20:05.026Z,11.20
2024-04-14T08:22:33.706Z,12.50
2024-04-14T08:25:06.307Z,15.20
2024-04-14T08:27:34.952Z,10.10
2024-04-14T08:30:03.747Z,11.40
2024-04-14T08:32:32.326Z,9.40
2024-04-14T08:35:00.932Z,7.50
2024-04-14T08:37:29.503Z,8.10
2024-04-14T08:39:59.084Z,13.70
2024-04-14T08:42:30.105Z,14.70
2024-04-14T08:45:01.490Z,8.80
2024-04-14T08:47:32.039Z,8.40
2024-04-14T08:50:03.954Z,7.30
2024-04-14T08:52:36.459Z,6.40
2024-04-14T08:55:05.634Z,8.80
2024-04-14T08:57:34.391Z,6.80
2024-04-14T09:00:03.971Z,6.30
2024-04-14T09:02:32.593Z,6.90
2024-04-14T09:05:01.630Z,6.60
2024-04-14T09:07:30.316Z,7.90
2024-04-14T09:09:59.131Z,6.40
2024-04-14T09:12:29.226Z,5.40
2024-04-14T09:14:58.108Z,10.80
2024-04-14T09:17:26.812Z,5.50
2024-04-14T09:19:56.537Z,3.90
2024-04-14T09:22:25.059Z,8.40
2024-04-14T09:24:53.556Z,6.20
2024-04-14T09:27:23.851Z,7.40
2024-04-14T09:29:54.259Z,5.90
2024-04-14T09:32:24.320Z,4.50
2024-04-14T09:34:52.875Z,4.60
2024-04-14T09:37:21.268Z,3.90
2024-04-14T09:39:52.304Z,6.60
2024-04-14T09:42:21.351Z,2.80
2024-04-14T09:44:51.213Z,2.40
2024-04-14T09:47:22.338Z,3.70
2024-04-14T09:49:52.872Z,6.60
2024-04-14T09:52:30.488Z,2.40
2024-04-14T09:55:12.870Z,2.50
2024-04-14T09:57:50.592Z,3.40
2024-04-14T10:00:19.838Z,3.40
2024-04-14T10:02:58.406Z,4.80
2024-04-14T10:05:28.312Z,6.00
2024-04-14T10:07:57.048Z,4.40
2024-04-14T10:10:28.523Z,3.20
2024-04-14T10:12:57.536Z,6.00
2024-04-14T10:15:26.644Z,5.00
2024-04-14T10:18:20.370Z,5.70
2024-04-14T10:20:49.601Z,3.90
2024-04-14T10:23:20.495Z,4.20
2024-04-14T10:25:50.744Z,3.80
2024-04-14T10:28:23.329Z,4.40
2024-04-14T10:31:02.817Z,4.50
2024-04-14T10:33:32.607Z,6.90
2024-04-14T10:36:06.765Z,6.40
2024-04-14T10:38:35.610Z,4.90
2024-04-14T10:41:05.571Z,5.90
2024-04-14T10:43:35.941Z,4.50
2024-04-14T10:46:04.832Z,4.10
2024-04-14T10:48:34.020Z,4.90
2024-04-14T10:51:04.216Z,18.80
2024-04-14T10:53:34.831Z,3.70
2024-04-14T10:56:03.691Z,7.30
2024-04-14T10:58:35.016Z,5.30
2024-04-14T11:01:11.368Z,3.80
2024-04-14T11:03:43.593Z,3.50
2024-04-14T11:06:18.668Z,6.50
2024-04-14T11:08:48.292Z,3.70
2024-04-14T11:11:18.741Z,5.10
2024-04-14T11:13:50.012Z,44.20
2024-04-14T11:16:21.638Z,4.20
2024-04-14T11:18:52.494Z,3.60
2024-04-14T11:21:35.236Z,5.70
2024-04-14T11:24:11.499Z,5.20
2024-04-14T11:26:42.501Z,5.40
2024-04-14T11:29:11.610Z,4.60
2024-04-14T11:31:40.508Z,12.40
2024-04-14T11:34:12.609Z,3.50
2024-04-14T11:36:42.510Z,4.20
2024-04-14T11:39:12.938Z,3.50
2024-04-14T11:41:41.613Z,4.40
2024-04-14T11:44:10.969Z,3.60
2024-04-14T11:46:41.065Z,4.10
2024-04-14T11:49:20.769Z,3.90
2024-04-14T11:51:52.780Z,4.40
2024-04-14T11:54:21.753Z,3.20
2024-04-14T11:56:52.283Z,5.40
2024-04-14T11:59:21.330Z,3.20
2024-04-14T12:01:49.864Z,5.80
2024-04-14T12:04:18.671Z,5.40
2024-04-14T12:06:47.162Z,5.10
2024-04-14T12:09:15.597Z,4.40
2024-04-14T12:11:44.291Z,9.00
2024-04-14T12:14:12.775Z,2.50
2024-04-14T12:16:42.699Z,3.90
2024-04-14T12:19:12.312Z,5.10
2024-04-14T12:21:41.175Z,4.80
2024-04-14T12:24:12.345Z,5.20
2024-04-14T12:26:44.388Z,5.70
2024-04-14T12:29:19.379Z,5.20
2024-04-14T12:31:51.059Z,5.80
2024-04-14T12:34:19.565Z,4.40
2024-04-14T12:36:48.163Z,4.20
2024-04-14T12:39:23.752Z,6.00
2024-04-14T12:41:56.280Z,4.60
2024-04-14T12:44:24.724Z,4.80
2024-04-14T12:46:54.463Z,4.20
2024-04-14T12:49:26.802Z,4.40
2024-04-14T12:51:59.381Z,6.50
2024-04-14T12:54:29.300Z,4.80
2024-04-14T12:57:00.446Z,3.70
2024-04-14T12:59:29.026Z,5.60
2024-04-14T13:01:57.650Z,5.30
2024-04-14T13:04:30.007Z,3.30
2024-04-14T13:06:59.841Z,4.60
2024-04-14T13:09:28.575Z,4.30
2024-04-14T13:11:58.907Z,9.00
2024-04-14T13:14:36.412Z,4.00
2024-04-14T13:17:05.522Z,5.20
2024-04-14T13:19:35.371Z,3.20
2024-04-14T13:22:04.223Z,4.70
2024-04-14T13:24:34.908Z,4.90
2024-04-14T13:27:04.437Z,4.20
2024-04-14T13:29:36.534Z,5.20
2024-04-14T13:32:06.765Z,3.20
2024-04-14T13:34:35.724Z,11.50
2024-04-14T13:37:08.696Z,2.00
2024-04-14T13:39:37.312Z,2.20
2024-04-14T13:42:06.150Z,5.60
2024-04-14T13:44:37.305Z,3.00
2024-04-14T13:47:13.543Z,2.50
2024-04-14T13:49:41.971Z,5.00
2024-04-14T13:52:16.651Z,5.90
2024-04-14T13:54:55.854Z,3.30
2024-04-14T13:57:28.856Z,4.10
2024-04-14T14:00:01.478Z,3.10
2024-04-14T14:02:30.242Z,3.60
2024-04-14T14:05:05.997Z,6.80
2024-04-14T14:07:36.025Z,3.00
2024-04-14T14:10:05.320Z,2.10
2024-04-14T14:12:34.469Z,4.20
2024-04-14T14:15:06.469Z,7.00
2024-04-14T14:17:36.532Z,5.90
2024-04-14T14:20:10.310Z,5.20
2024-04-14T14:22:45.506Z,2.70
2024-04-14T14:25:15.764Z,3.10
2024-04-14T14:27:47.585Z,6.40
2024-04-14T14:30:17.750Z,5.10
2024-04-14T14:32:46.577Z,3.10
2024-04-14T14:35:33.364Z,3.40
2024-04-14T14:38:03.628Z,3.30
2024-04-14T14:40:32.902Z,2.80
2024-04-14T14:43:02.579Z,3.80
2024-04-14T14:45:31.697Z,4.10
2024-04-14T14:48:00.384Z,5.20
2024-04-14T14:50:31.164Z,6.40
2024-04-14T14:53:03.898Z,5.10
2024-04-14T14:55:36.398Z,6.40
2024-04-14T14:58:06.154Z,5.80
2024-04-14T15:00:34.793Z,5.30
2024-04-14T15:03:03.973Z,2.20
2024-04-14T15:05:32.801Z,7.60
2024-04-14T15:08:07.519Z,8.00
2024-04-14T15:11:26.248Z,6.00
2024-04-14T15:14:07.323Z,4.60
2024-04-14T15:16:39.580Z,8.00
2024-04-14T15:19:12.630Z,4.20
2024-04-14T15:21:43.432Z,2.70
2024-04-14T15:24:21.309Z,6.30
2024-04-14T15:26:54.269Z,2.60
2024-04-14T15:29:27.618Z,2.30
2024-04-14T15:31:57.127Z,5.00
2024-04-14T15:34:30.141Z,4.10
2024-04-14T15:36:59.000Z,3.40
2024-04-14T15:39:28.381Z,4.30
2024-04-14T15:42:01.202Z,5.00
2024-04-14T15:44:30.390Z,4.20
2024-04-14T15:47:01.643Z,3.50
2024-04-14T15:49:30.102Z,2.20
2024-04-14T15:51:59.384Z,3.50
2024-04-14T15:54:28.010Z,3.00
2024-04-14T15:56:58.746Z,2.80
2024-04-14T15:59:33.328Z,4.80
2024-04-14T16:02:07.824Z,6.70
2024-04-14T16:04:37.257Z,4.00
2024-04-14T16:07:05.919Z,3.40
2024-04-14T16:09:35.201Z,5.00
2024-04-14T16:12:09.960Z,3.90
2024-04-14T16:14:46.047Z,5.70
2024-04-14T16:17:22.228Z,4.10
2024-04-14T16:22:19.381Z,3.10
2024-04-14T16:24:48.602Z,4.50
2024-04-14T16:27:17.248Z,3.50
2024-04-14T16:29:48.153Z,3.40
2024-04-14T16:32:18.283Z,3.30
2024-04-14T16:34:48.342Z,2.90
2024-04-14T16:37:17.763Z,4.50
2024-04-14T16:39:46.828Z,3.60
2024-04-14T16:42:15.355Z,6.30
2024-04-14T16:44:43.857Z,4.20
2024-04-14T16:47:13.285Z,5.20
2024-04-14T16:49:43.484Z,2.70
2024-04-14T16:52:13.346Z,3.80
2024-04-14T16:54:45.054Z,2.70
2024-04-14T16:57:13.512Z,2.70
2024-04-14T16:59:42.451Z,3.00
2024-04-14T17:02:10.907Z,3.00
2024-04-14T17:04:41.174Z,3.30
2024-04-14T17:07:13.126Z,5.80
2024-04-14T17:09:41.968Z,3.20
2024-04-14T17:12:12.529Z,4.30
2024-04-14T17:14:45.601Z,8.60
2024-04-14T17:17:17.172Z,4.00
2024-04-14T17:19:46.484Z,4.90
2024-04-14T17:22:15.277Z,5.80
2024-04-14T17:24:45.832Z,5.10
2024-04-14T17:27:15.709Z,5.20
2024-04-14T17:29:44.310Z,5.20
2024-04-14T17:32:13.983Z,4.30
2024-04-14T17:34:45.411Z,6.40
2024-04-14T17:37:15.970Z,4.00
2024-04-14T17:39:45.359Z,2.70
2024-04-14T17:42:16.883Z,5.00
2024-04-14T17:44:47.015Z,4.30
2024-04-14T17:47:15.999Z,4.60
2024-04-14T17:49:45.942Z,3.20
2024-04-14T17:52:14.480Z,2.30
2024-04-14T17:54:43.078Z,6.30
2024-04-14T17:57:11.677Z,3.00
2024-04-14T17:59:41.376Z,3.60
2024-04-14T18:02:10.002Z,5.50
2024-04-14T18:04:42.734Z,2.70
2024-04-14T18:07:12.134Z,2.10
2024-04-14T18:09:48.333Z,3.10
2024-04-14T18:12:22.031Z,4.30
2024-04-14T18:14:50.415Z,2.40
2024-04-14T18:17:28.647Z,3.30
2024-04-14T18:19:57.887Z,5.30
2024-04-14T18:22:26.712Z,5.20
2024-04-14T18:24:59.406Z,4.90
2024-04-14T18:27:29.254Z,3.30
2024-04-14T18:29:57.799Z,2.70
2024-04-14T18:32:26.210Z,5.60
2024-04-14T18:34:55.042Z,4.40
2024-04-14T18:37:23.970Z,3.40
2024-04-14T18:39:53.532Z,2.60
2024-04-14T18:42:22.702Z,2.70
2024-04-14T18:44:51.388Z,3.40
2024-04-14T18:47:19.796Z,2.40
2024-04-14T18:49:48.774Z,2.80
2024-04-14T18:52:18.839Z,3.70
2024-04-14T18:54:47.776Z,6.20
2024-04-14T18:57:20.416Z,4.20
2024-04-14T18:59:50.181Z,4.70
2024-04-14T19:02:18.779Z,4.40
2024-04-14T19:04:48.651Z,4.30
2024-04-14T19:07:18.302Z,4.80
2024-04-14T19:09:47.822Z,8.10
2024-04-14T19:12:19.236Z,2.50
2024-04-14T19:14:51.775Z,2.70
2024-04-14T19:17:22.101Z,5.30
2024-04-14T19:19:50.818Z,5.70
2024-04-14T19:22:25.411Z,3.30
2024-04-14T19:24:55.883Z,3.20
2024-04-14T19:27:24.506Z,2.70
2024-04-14T19:29:54.786Z,2.40
2024-04-14T19:32:23.297Z,4.00
2024-04-14T19:34:51.983Z,2.90
2024-04-14T19:37:20.405Z,6.20
2024-04-14T19:39:51.887Z,2.50
2024-04-14T19:42:20.465Z,3.40
2024-04-14T19:44:48.986Z,3.20
2024-04-14T19:47:19.744Z,2.00
2024-04-14T19:49:48.709Z,3.70
2024-04-14T19:52:17.566Z,2.70
2024-04-14T19:54:53.307Z,2.50
2024-04-14T19:57:24.400Z,3.10
2024-04-14T19:59:54.722Z,3.50
2024-04-14T20:02:24.308Z,2.50
2024-04-14T20:04:53.191Z,2.30
2024-04-14T20:07:22.178Z,2.80
2024-04-14T20:09:53.260Z,3.70
2024-04-14T20:12:21.924Z,3.40
2024-04-14T20:14:50.738Z,2.10
2024-04-14T20:17:19.459Z,4.30
2024-04-14T20:19:48.990Z,4.40
2024-04-14T20:22:19.095Z,2.10
2024-04-14T20:24:53.483Z,3.80
2024-04-14T20:27:31.338Z,2.10
2024-04-14T20:30:07.241Z,2.90
2024-04-14T20:32:36.851Z,3.60
2024-04-14T20:35:05.823Z,3.40
2024-04-14T20:37:36.483Z,3.60
2024-04-14T20:40:07.450Z,3.70
2024-04-14T20:42:36.292Z,5.20
2024-04-14T20:45:06.368Z,3.30
2024-04-14T20:47:35.085Z,2.20
2024-04-14T20:50:05.170Z,4.70
2024-04-14T20:52:34.816Z,4.20
2024-04-14T20:55:04.459Z,4.20
2024-04-14T20:57:33.231Z,2.90
2024-04-14T21:00:04.407Z,3.30
2024-04-14T21:02:35.397Z,4.50
2024-04-14T21:05:11.900Z,3.50
2024-04-14T21:07:43.266Z,3.70
2024-04-14T21:12:45.797Z,4.40
2024-04-14T21:15:14.663Z,3.80
2024-04-14T21:17:43.788Z,3.90
2024-04-14T21:20:13.711Z,3.40
2024-04-14T21:22:47.814Z,6.60
2024-04-14T21:25:17.915Z,7.30
2024-04-14T21:27:47.446Z,5.10
2024-04-14T21:30:17.589Z,4.80
2024-04-14T21:32:47.310Z,4.40
2024-04-14T21:35:23.404Z,4.10
2024-04-14T21:37:52.832Z,3.70
2024-04-14T21:40:21.422Z,4.20
2024-04-14T21:42:52.928Z,3.90
2024-04-14T21:45:22.929Z,2.80
2024-04-14T21:47:52.214Z,6.50
2024-04-14T21:50:21.599Z,5.50
2024-04-14T21:53:02.880Z,4.40
2024-04-14T21:55:32.974Z,3.70
2024-04-14T21:58:01.556Z,2.80
2024-04-14T22:00:32.787Z,3.60
2024-04-14T22:03:09.095Z,5.80
2024-04-14T22:05:59.369Z,4.30
2024-04-14T22:08:29.027Z,3.80
2024-04-14T22:11:00.903Z,4.60
2024-04-14T22:13:33.757Z,7.20
2024-04-14T22:16:09.354Z,4.50
2024-04-14T22:18:49.268Z,4.90
2024-04-14T22:21:20.525Z,9.20
2024-04-14T22:23:53.203Z,18.80
2024-04-14T22:26:21.580Z,18.20
2024-04-14T22:28:52.326Z,14.30
2024-04-14T22:31:20.982Z,10.20
2024-04-14T22:33:50.080Z,10.20
2024-04-14T22:36:21.245Z,8.00
2024-04-14T22:38:55.784Z,9.60
2024-04-14T22:41:31.718Z,10.30
2024-04-14T22:44:02.033Z,9.60
2024-04-14T22:46:30.704Z,10.10
2024-04-14T22:49:01.323Z,12.40
2024-04-14T22:51:30.343Z,8.20
2024-04-14T22:54:07.941Z,6.80
2024-04-14T22:56:37.647Z,5.40
2024-04-14T22:59:07.671Z,2.70
2024-04-14T23:01:44.931Z,2.70
2024-04-14T23:04:13.669Z,3.40
2024-04-14T23:06:48.230Z,4.50
2024-04-14T23:09:18.351Z,8.90
2024-04-14T23:11:47.250Z,10.30
2024-04-14T23:14:17.191Z,3.80
2024-04-14T23:16:48.550Z,3.60
2024-04-14T23:19:29.997Z,2.60
2024-04-14T23:22:02.594Z,2.60
2024-04-14T23:24:35.074Z,3.50
2024-04-14T23:27:08.108Z,4.90
2024-04-14T23:29:38.445Z,3.40
2024-04-14T23:32:16.062Z,2.00
2024-04-14T23:35:38.975Z,4.10
2024-04-14T23:38:14.624Z,1.90
2024-04-14T23:40:43.467Z,2.70
2024-04-14T23:43:12.051Z,3.60
2024-04-14T23:45:42.561Z,3.10
2024-04-14T23:48:11.577Z,2.80
2024-04-14T23:50:44.843Z,3.40
2024-04-14T23:53:15.774Z,4.30
2024-04-14T23:55:48.181Z,3.30
2024-04-14T23:58:26.572Z,4.40
